ADDS METAR Data INFO
IDs: Format: Raw Decoded Include TAF

Data at: 1758 UTC 15 Dec 2017

KSAW 151747Z 31005KT 3SM -SN SCT007 BKN012 OVC048 M08/M10 A2970
KSAW 151647Z 29010KT 10SM OVC060 M08/M10 A2971
KSAW 151545Z 29009KT 10SM OVC060 M08/M10 A2970
KSAW 151445Z 28006KT 10SM SCT036 OVC075 M09/M11 A2970
KSAW 151348Z 29009KT 10SM -SN BKN050 BKN060 OVC080 M09/M11 A2969
KSAW 151255Z 29006KT 10SM SCT050 OVC090 M11/M12 A2970
KSAW 151147Z 28007KT 10SM SCT047 SCT060 SCT080 M12/M13 A2970
KSAW 151058Z AUTO 29007KT 10SM SCT016 SCT022 M11/M12 A2970 RMK AO2 T11091124
KSAW 151038Z AUTO 28007KT 7SM BKN016 BKN024 OVC028 M10/M12 A2970 RMK AO2 T11051119
KSAW 151018Z AUTO 28005KT 5SM -SN SCT014 BKN024 OVC036 M10/M11 A2971 RMK AO2 T11001115
KSAW 150958Z AUTO 27006KT 10SM SCT026 BKN037 OVC055 M10/M11 A2971 RMK AO2 T10981112
KSAW 150938Z AUTO 26004KT 5SM -SN SCT014 BKN033 OVC039 M10/M11 A2972 RMK AO2 T10981110
KSAW 150919Z AUTO 25005KT 3SM -SN BKN016 BKN020 OVC025 M10/M11 A2972 RMK AO2 T10971110
KSAW 150858Z AUTO 25005KT 3SM -SN OVC014 M09/M11 A2973 RMK AO2 T10951107
KSAW 150838Z AUTO 24005KT 3SM -SN OVC012 M09/M11 A2973 RMK AO2 T10951107
KSAW 150818Z AUTO 24005KT 2 1/2SM -SN SCT012 OVC020 M09/M11 A2974 RMK AO2 T10951107
KSAW 150758Z AUTO 24005KT 3SM -SN OVC017 M09/M11 A2974 RMK AO2 T10951108
KSAW 150738Z AUTO 23005KT 5SM -SN SCT012 BKN019 OVC034 M09/M11 A2975 RMK AO2 T10951108
KSAW 150718Z AUTO 22005KT 2SM -SN BKN012 OVC019 M09/M11 A2975 RMK AO2 T10951108
KSAW 150658Z AUTO 22005KT 4SM -SN SCT028 BKN035 OVC041 M09/M11 A2976 RMK AO2 T10951108
KSAW 150638Z AUTO 22006KT 4SM -SN SCT020 BKN027 OVC041 M10/M11 A2977 RMK AO2 T10961109
KSAW 150618Z AUTO 22007KT 4SM -SN BKN020 OVC027 M09/M11 A2978 RMK AO2 T10951108
KSAW 150558Z AUTO 23007KT 4SM -SN BKN019 OVC026 M09/M11 A2979 RMK AO2 T10951107 11082 21095 410731124
KSAW 150538Z AUTO 22006KT 4SM -SN BKN016 OVC024 M09/M11 A2980 RMK AO2 T10951108
KSAW 150518Z AUTO 22008KT 2 1/2SM -SN BKN012 OVC023 M09/M11 A2981 RMK AO2 T10951108
KSAW 150458Z AUTO 22006KT 3SM -SN SCT010 BKN014 OVC033 M09/M11 A2982 RMK AO2 T10951107
KSAW 150438Z AUTO 22006KT 2SM -SN OVC010 M09/M11 A2983 RMK AO2 T10951107
KSAW 150418Z AUTO 23007KT 2SM -SN BKN010 OVC014 M09/M11 A2984 RMK AO2 T10931107
KSAW 150358Z AUTO 23006KT 3SM -SN BKN014 BKN024 OVC035 M09/M11 A2984 RMK AO2 T10921108
KSAW 150338Z AUTO 22006KT 10SM -SN SCT032 SCT039 OVC060 M09/M11 A2985 RMK AO2 T10921110
KSAW 150318Z AUTO 22005KT 10SM -SN OVC060 M09/M11 A2985 RMK AO2 T10921110
KSAW 150245Z 23007KT 7SM -SN SCT026 SCT035 OVC060 M09/M11 A2987
KSAW 150145Z 24007KT 10SM OVC026 M08/M11 A2989
KSAW 150045Z 21004KT 10SM BKN030 OVC060 M09/M11 A2990
KSAW 142345Z 23003KT 10SM SCT028 OVC065 M09/M11 A2990
KSAW 142245Z 00000KT 10SM OVC032 M08/M12 A2990
KSAW 142145Z 29006KT 10SM OVC034 M08/M12 A2991
KSAW 142045Z 26005KT 10SM OVC037 M08/M12 A2990
KSAW 141950Z 27006KT 10SM BKN027 OVC034 M07/M12 A2990
KSAW 141850Z 29011KT 10SM BKN024 OVC085 M08/M13 A2991
KSAW 141747Z 33006KT 10SM BKN022 M09/M13 A2992
KSAW 141647Z 32007KT 10SM FEW020 SCT120 M10/M13 A2993
KSAW 141547Z 29003KT 10SM SCT120 M11/M14 A2994
KSAW 141447Z 26004KT 10SM OVC024 M12/M14 A2992
KSAW 141347Z 32004KT 10SM -SN SCT025 BKN120 M12/M14 A2991
KSAW 141247Z 29008KT 10SM -SN OVC021 M11/M14 A2991
KSAW 141147Z 30012KT 10SM OVC024 M11/M14 A2988
KSAW 141058Z AUTO 31013KT 10SM -SN OVC027 M11/M14 A2987 RMK AO2 T11121136
KSAW 141038Z AUTO 30010KT 10SM OVC029 M11/M13 A2987 RMK AO2 T11121135
KSAW 141018Z AUTO 29009KT 10SM OVC027 M11/M13 A2986 RMK AO2 T11101135
KSAW 140958Z AUTO 31009KT 10SM OVC025 M11/M13 A2986 RMK AO2 T11081132
KSAW 140939Z AUTO 30008KT 10SM OVC025 M11/M13 A2986 RMK AO2 T11071130
KSAW 140918Z AUTO 30009KT 10SM OVC025 M11/M13 A2985 RMK AO2 T11071131
KSAW 140858Z AUTO 30012KT 10SM OVC027 M11/M13 A2984 RMK AO2 T11071131
KSAW 140838Z AUTO 31010KT 10SM BKN027 OVC035 M11/M13 A2984 RMK AO2 T11061130
KSAW 140818Z AUTO 31008KT 10SM BKN027 OVC033 M11/M13 A2983 RMK AO2 T11061130
KSAW 140758Z AUTO 32010KT 10SM BKN029 OVC034 M10/M13 A2983 RMK AO2 T11051126
KSAW 140738Z AUTO 32009KT 10SM -SN SCT029 OVC034 M11/M13 A2982 RMK AO2 T11061126
KSAW 140718Z AUTO 32009KT 10SM SCT029 OVC036 M10/M13 A2981 RMK AO2 T11031129
KSAW 140659Z AUTO 34011G16KT 10SM SCT029 OVC036 M10/M13 A2980 RMK AO2 T11031131
KSAW 140638Z AUTO 34010G16KT 7SM -SN BKN028 OVC034 M10/M13 A2980 RMK AO2 T11031131
KSAW 140618Z AUTO 33010KT 7SM -SN SCT012 SCT018 OVC032 M10/M12 A2980 RMK AO2 T11001121